createdAt,value
2019-04-14T00:00:55.370Z,19.77
2019-04-14T00:03:33.041Z,17.37
2019-04-14T00:06:02.669Z,19.63
2019-04-14T00:08:30.518Z,19.23
2019-04-14T00:10:57.719Z,20.00
2019-04-14T00:13:24.464Z,19.77
2019-04-14T00:15:53.195Z,18.53
2019-04-14T00:18:20.764Z,20.37
2019-04-14T00:20:47.461Z,20.93
2019-04-14T00:23:15.136Z,19.70
2019-04-14T00:25:43.282Z,20.80
2019-04-14T00:28:10.019Z,21.00
2019-04-14T00:30:38.245Z,19.77
2019-04-14T00:33:06.910Z,20.03
2019-04-14T00:35:47.528Z,18.90
2019-04-14T00:38:19.533Z,17.67
2019-04-14T00:40:54.084Z,20.67
2019-04-14T00:43:28.743Z,19.33
2019-04-14T00:46:01.367Z,20.03
2019-04-14T00:48:29.977Z,19.67
2019-04-14T00:50:58.088Z,19.77
2019-04-14T00:53:25.434Z,20.50
2019-04-14T00:55:53.304Z,19.20
2019-04-14T00:58:21.352Z,19.90
2019-04-14T01:00:49.907Z,20.57
2019-04-14T01:03:17.744Z,20.60
2019-04-14T01:05:45.786Z,19.70
2019-04-14T01:08:12.717Z,18.30
2019-04-14T01:10:41.096Z,18.00
2019-04-14T01:13:10.792Z,17.83
2019-04-14T01:15:48.101Z,17.90
2019-04-14T01:18:05.874Z,18.70
2019-04-14T01:20:33.943Z,19.00
2019-04-14T01:23:01.960Z,19.03
2019-04-14T01:28:11.350Z,18.40
2019-04-14T01:30:39.358Z,19.30
2019-04-14T01:33:07.511Z,19.80
2019-04-14T01:35:35.642Z,19.00
2019-04-14T01:38:03.685Z,18.53
2019-04-14T01:40:31.437Z,18.70
2019-04-14T01:42:59.433Z,18.37
2019-04-14T01:45:27.425Z,19.20
2019-04-14T01:47:55.218Z,20.07
2019-04-14T01:50:23.893Z,19.70
2019-04-14T01:52:58.919Z,19.47
2019-04-14T01:55:33.144Z,17.77
2019-04-14T01:58:05.389Z,19.70
2019-04-14T02:00:34.256Z,20.37
2019-04-14T02:03:04.131Z,17.97
2019-04-14T02:05:31.822Z,18.70
2019-04-14T02:08:00.043Z,18.50
2019-04-14T02:10:27.983Z,19.90
2019-04-14T02:12:56.387Z,17.43
2019-04-14T02:15:24.299Z,17.40
2019-04-14T02:17:52.330Z,18.50
2019-04-14T02:20:19.052Z,18.40
2019-04-14T02:22:46.332Z,16.80
2019-04-14T02:25:14.186Z,18.27
2019-04-14T02:27:40.973Z,19.20
2019-04-14T02:30:10.169Z,19.97
2019-04-14T02:33:06.358Z,18.83
2019-04-14T02:35:39.941Z,18.70
2019-04-14T02:38:03.499Z,18.17
2019-04-14T02:40:40.993Z,18.03
2019-04-14T02:45:35.597Z,18.60
2019-04-14T02:48:03.598Z,18.37
2019-04-14T02:50:30.326Z,17.97
2019-04-14T02:55:29.829Z,18.20
2019-04-14T02:58:01.671Z,17.93
2019-04-14T03:00:47.891Z,17.00
2019-04-14T03:03:02.759Z,17.70
2019-04-14T03:05:53.323Z,18.00
2019-04-14T03:08:26.048Z,17.90
2019-04-14T03:10:47.790Z,18.43
2019-04-14T03:13:21.355Z,17.80
2019-04-14T03:15:48.175Z,18.10
2019-04-14T03:23:30.349Z,17.23
2019-04-14T03:25:49.822Z,17.57
2019-04-14T03:28:20.871Z,16.87
2019-04-14T03:31:25.932Z,17.87
2019-04-14T03:34:11.229Z,17.80
2019-04-14T03:38:36.917Z,17.57
2019-04-14T03:40:58.488Z,17.30
2019-04-14T03:43:30.990Z,18.37
2019-04-14T03:48:42.854Z,18.37
2019-04-14T03:50:55.175Z,18.97
2019-04-14T03:55:54.413Z,17.27
2019-04-14T03:58:16.562Z,18.23
2019-04-14T04:00:44.351Z,17.70
2019-04-14T04:03:11.067Z,17.70
2019-04-14T04:05:37.743Z,18.30
2019-04-14T04:08:04.979Z,18.77
2019-04-14T04:10:33.574Z,18.83
2019-04-14T04:13:00.368Z,18.30
2019-04-14T04:15:27.887Z,18.17
2019-04-14T04:18:00.209Z,17.70
2019-04-14T04:20:28.780Z,17.10
2019-04-14T04:23:00.838Z,16.97
2019-04-14T04:25:35.861Z,16.90
2019-04-14T04:28:04.491Z,18.47
2019-04-14T04:30:34.039Z,16.80
2019-04-14T04:33:19.894Z,18.47
2019-04-14T04:35:48.504Z,18.67
2019-04-14T04:38:18.105Z,19.83
2019-04-14T04:40:46.056Z,18.97
2019-04-14T04:43:12.912Z,17.93
2019-04-14T04:45:40.797Z,18.37
2019-04-14T04:48:08.782Z,18.20
2019-04-14T04:50:36.750Z,19.00
2019-04-14T04:53:04.731Z,18.07
2019-04-14T04:55:32.773Z,16.93
2019-04-14T04:57:59.561Z,19.83
2019-04-14T05:00:26.662Z,19.07
2019-04-14T05:02:53.468Z,16.90
2019-04-14T05:05:57.949Z,16.50
2019-04-14T05:08:39.131Z,17.23
2019-04-14T05:11:14.383Z,17.27
2019-04-14T05:13:42.693Z,17.53
2019-04-14T05:16:10.676Z,17.70
2019-04-14T05:18:37.796Z,16.60
2019-04-14T05:21:04.512Z,17.83
2019-04-14T05:23:32.101Z,18.07
2019-04-14T05:25:58.869Z,16.93
2019-04-14T05:28:26.587Z,17.87
2019-04-14T05:30:54.771Z,18.03
2019-04-14T05:33:22.613Z,17.53
2019-04-14T05:35:49.514Z,18.37
2019-04-14T05:38:16.932Z,17.33
2019-04-14T05:40:43.654Z,18.03
2019-04-14T05:43:11.350Z,17.27
2019-04-14T05:45:39.426Z,15.93
2019-04-14T05:48:07.380Z,16.50
2019-04-14T05:50:34.212Z,16.83
2019-04-14T05:53:02.166Z,17.30
2019-04-14T05:55:29.017Z,16.10
2019-04-14T05:57:56.707Z,17.57
2019-04-14T06:00:23.546Z,16.23
2019-04-14T06:02:50.725Z,15.33
2019-04-14T06:05:18.863Z,15.43
2019-04-14T06:07:45.677Z,16.17
2019-04-14T06:10:12.805Z,16.20
2019-04-14T06:12:39.648Z,17.33
2019-04-14T06:15:06.378Z,15.47
2019-04-14T06:17:33.064Z,16.80
2019-04-14T06:19:59.719Z,15.40
2019-04-14T06:22:26.393Z,16.30
2019-04-14T06:24:53.027Z,16.03
2019-04-14T06:27:19.659Z,14.70
2019-04-14T06:29:48.432Z,15.40
2019-04-14T06:32:25.770Z,15.53
2019-04-14T06:35:09.644Z,17.87
2019-04-14T06:37:38.175Z,15.53
2019-04-14T06:40:06.739Z,15.73
2019-04-14T06:42:33.469Z,15.60
2019-04-14T06:45:00.158Z,16.80
2019-04-14T06:47:26.867Z,16.10
2019-04-14T06:49:53.560Z,17.60
2019-04-14T06:52:20.301Z,15.80
2019-04-14T06:54:47.012Z,16.07
2019-04-14T06:57:13.663Z,15.60
2019-04-14T06:59:40.331Z,15.03
2019-04-14T07:02:08.649Z,16.33
2019-04-14T07:04:35.425Z,14.20
2019-04-14T07:07:02.184Z,16.17
2019-04-14T07:09:28.865Z,15.60
2019-04-14T07:11:55.627Z,15.00
2019-04-14T07:14:22.554Z,15.77
2019-04-14T07:16:51.413Z,16.30
2019-04-14T07:19:17.685Z,15.10
2019-04-14T07:21:44.391Z,16.23
2019-04-14T07:24:11.004Z,15.70
2019-04-14T07:26:37.673Z,14.30
2019-04-14T07:29:04.308Z,15.87
2019-04-14T07:31:35.589Z,14.50
2019-04-14T07:34:10.089Z,14.43
2019-04-14T07:36:55.268Z,17.37
2019-04-14T07:39:42.027Z,21.70
2019-04-14T07:42:16.615Z,14.70
2019-04-14T07:44:51.287Z,14.60
2019-04-14T07:47:36.498Z,14.20
2019-04-14T07:50:22.241Z,15.03
2019-04-14T07:52:50.837Z,14.70
2019-04-14T07:55:37.324Z,14.87
2019-04-14T07:58:08.864Z,13.20
2019-04-14T08:00:37.412Z,15.47
2019-04-14T08:03:06.120Z,15.00
2019-04-14T08:05:34.683Z,14.00
2019-04-14T08:08:01.415Z,14.87
2019-04-14T08:10:28.170Z,13.73
2019-04-14T08:12:54.888Z,13.40
2019-04-14T08:15:21.514Z,14.10
2019-04-14T08:17:48.196Z,13.60
2019-04-14T08:20:26.502Z,13.57
2019-04-14T08:22:43.307Z,14.30
2019-04-14T08:25:09.928Z,13.80
2019-04-14T08:27:36.613Z,14.57
2019-04-14T08:30:06.172Z,15.10
2019-04-14T08:32:32.838Z,14.43
2019-04-14T08:34:59.485Z,14.83
2019-04-14T08:37:26.152Z,13.73
2019-04-14T08:39:52.802Z,13.90
2019-04-14T08:42:27.168Z,14.80
2019-04-14T08:44:55.720Z,14.60
2019-04-14T08:47:24.315Z,14.60
2019-04-14T08:49:52.845Z,16.20
2019-04-14T08:52:24.421Z,14.10
2019-04-14T08:54:53.066Z,15.50
2019-04-14T08:57:39.713Z,14.00
2019-04-14T09:00:08.683Z,14.67
2019-04-14T09:02:37.216Z,14.70
2019-04-14T09:05:18.861Z,14.83
2019-04-14T09:07:47.439Z,15.40
2019-04-14T09:10:19.092Z,14.90
2019-04-14T09:12:47.710Z,14.53
2019-04-14T09:15:14.468Z,15.00
2019-04-14T09:17:41.204Z,16.93
2019-04-14T09:20:07.930Z,15.00
2019-04-14T09:22:34.578Z,16.43
2019-04-14T09:25:01.203Z,14.13
2019-04-14T09:27:27.836Z,14.17
2019-04-14T09:29:54.508Z,15.07
2019-04-14T09:32:21.653Z,15.17
2019-04-14T09:34:48.324Z,16.17
2019-04-14T09:37:15.138Z,14.70
2019-04-14T09:39:41.759Z,16.70
2019-04-14T09:42:08.401Z,18.33
2019-04-14T09:44:35.075Z,16.30
2019-04-14T09:47:01.721Z,15.17
2019-04-14T09:49:28.390Z,16.00
2019-04-14T09:51:55.025Z,14.40
2019-04-14T09:54:21.691Z,13.37
2019-04-14T09:56:48.348Z,14.83
2019-04-14T09:59:15.007Z,14.50
2019-04-14T10:01:41.651Z,15.20
2019-04-14T10:04:08.320Z,14.83
2019-04-14T10:06:34.971Z,15.70
2019-04-14T10:09:01.702Z,15.63
2019-04-14T10:11:28.464Z,14.70
2019-04-14T10:13:55.112Z,14.47
2019-04-14T10:16:21.783Z,14.30
2019-04-14T10:18:48.452Z,15.33
2019-04-14T10:21:17.507Z,14.53
2019-04-14T10:23:43.774Z,15.70
2019-04-14T10:26:10.432Z,17.27
2019-04-14T10:28:37.113Z,20.57
2019-04-14T10:31:03.781Z,16.70
2019-04-14T10:33:30.426Z,14.80
2019-04-14T10:35:57.093Z,14.53
2019-04-14T10:38:23.980Z,15.27
2019-04-14T10:40:50.768Z,15.77
2019-04-14T10:43:18.213Z,15.00
2019-04-14T10:45:44.894Z,15.17
2019-04-14T10:48:11.640Z,15.00
2019-04-14T10:50:38.307Z,15.63
2019-04-14T10:53:05.052Z,14.70
2019-04-14T10:55:31.736Z,16.47
2019-04-14T10:57:58.367Z,14.90
2019-04-14T11:00:25.205Z,15.20
2019-04-14T11:02:51.882Z,75.57
2019-04-14T11:05:18.519Z,16.43
2019-04-14T11:07:45.228Z,16.50
2019-04-14T11:10:12.364Z,27.23
2019-04-14T11:12:39.204Z,15.63
2019-04-14T11:15:07.164Z,23.43
2019-04-14T11:17:33.851Z,17.43
2019-04-14T11:20:00.497Z,16.30
2019-04-14T11:22:27.169Z,25.60
2019-04-14T11:24:53.806Z,17.13
2019-04-14T11:27:20.488Z,17.77
2019-04-14T11:29:47.116Z,17.97
2019-04-14T11:32:33.493Z,20.40
2019-04-14T11:35:08.021Z,16.17
2019-04-14T11:37:53.497Z,16.90
2019-04-14T11:40:22.053Z,17.20
2019-04-14T11:42:52.605Z,17.63
2019-04-14T11:45:17.158Z,16.43
2019-04-14T11:47:43.836Z,17.47
2019-04-14T11:50:10.573Z,14.67
2019-04-14T11:52:37.275Z,21.50
2019-04-14T11:55:04.590Z,13.90
2019-04-14T11:57:31.176Z,18.30
2019-04-14T12:00:03.183Z,16.80
2019-04-14T12:02:37.781Z,23.77
2019-04-14T12:05:24.623Z,19.70
2019-04-14T12:07:59.060Z,16.40
2019-04-14T12:10:25.820Z,16.40
2019-04-14T12:12:53.264Z,17.80
2019-04-14T12:15:19.947Z,25.13
2019-04-14T12:17:46.576Z,23.77
2019-04-14T12:20:13.333Z,30.83
2019-04-14T12:22:40.583Z,28.90
2019-04-14T12:25:07.345Z,25.77
2019-04-14T12:27:34.102Z,24.70
2019-04-14T12:30:01.097Z,28.00
2019-04-14T12:32:28.464Z,23.47
2019-04-14T12:34:55.068Z,18.10
2019-04-14T12:37:21.731Z,17.70
2019-04-14T12:39:48.548Z,31.90
2019-04-14T12:42:19.862Z,18.73
2019-04-14T12:44:51.482Z,20.57
2019-04-14T12:47:40.360Z,20.00
2019-04-14T12:50:07.525Z,27.27
2019-04-14T12:52:34.179Z,23.90
2019-04-14T12:55:01.041Z,20.33
2019-04-14T12:57:35.584Z,24.97
2019-04-14T13:00:05.028Z,23.00
2019-04-14T13:02:36.166Z,23.57
2019-04-14T13:05:03.859Z,19.77
2019-04-14T13:07:30.540Z,16.17
2019-04-14T13:09:57.706Z,14.53
2019-04-14T13:12:24.437Z,17.53
2019-04-14T13:14:51.155Z,15.20
2019-04-14T13:17:17.824Z,16.53
2019-04-14T13:19:44.624Z,13.47
2019-04-14T13:22:11.292Z,15.00
2019-04-14T13:24:37.933Z,13.40
2019-04-14T13:27:04.597Z,13.43
2019-04-14T13:29:31.220Z,14.10
2019-04-14T13:31:57.909Z,13.67
2019-04-14T13:34:24.578Z,13.20
2019-04-14T13:36:51.422Z,12.97
2019-04-14T13:39:18.104Z,13.30
2019-04-14T13:41:44.762Z,13.20
2019-04-14T13:44:11.749Z,13.20
2019-04-14T13:46:38.465Z,13.20
2019-04-14T13:49:05.372Z,17.27
2019-04-14T13:51:32.020Z,17.33
2019-04-14T13:53:58.714Z,13.80
2019-04-14T13:56:25.753Z,15.60
2019-04-14T13:58:52.452Z,14.37
2019-04-14T14:01:19.198Z,11.93
2019-04-14T14:03:47.087Z,17.50
2019-04-14T14:06:13.856Z,20.17
2019-04-14T14:08:40.567Z,10.87
2019-04-14T14:11:24.725Z,12.23
2019-04-14T14:13:53.385Z,11.33
2019-04-14T14:16:24.622Z,10.63
2019-04-14T14:18:54.229Z,10.20
2019-04-14T14:21:22.805Z,10.67
2019-04-14T14:23:57.008Z,9.33
2019-04-14T14:26:31.429Z,9.97
2019-04-14T14:28:58.252Z,10.07
2019-04-14T14:31:25.052Z,8.97
2019-04-14T14:33:51.760Z,9.60
2019-04-14T14:36:18.388Z,9.10
2019-04-14T14:38:45.191Z,7.17
2019-04-14T14:41:13.734Z,9.17
2019-04-14T14:43:40.418Z,7.87
2019-04-14T14:46:17.797Z,7.93
2019-04-14T14:48:49.412Z,7.87
2019-04-14T14:51:17.945Z,8.10
2019-04-14T14:53:44.599Z,8.23
2019-04-14T14:56:11.403Z,9.13
2019-04-14T14:58:38.045Z,8.83
2019-04-14T15:01:05.320Z,8.40
2019-04-14T15:03:33.277Z,7.70
2019-04-14T15:05:59.954Z,7.60
2019-04-14T15:08:26.585Z,8.10
2019-04-14T15:10:53.274Z,7.73
2019-04-14T15:13:20.087Z,10.03
2019-04-14T15:15:46.819Z,7.97
2019-04-14T15:18:13.480Z,7.27
2019-04-14T15:20:40.172Z,8.20
2019-04-14T15:23:06.804Z,9.97
2019-04-14T15:25:33.573Z,16.87
2019-04-14T15:28:01.330Z,9.60
2019-04-14T15:30:28.131Z,7.70
2019-04-14T15:32:54.749Z,7.10
2019-04-14T15:35:21.397Z,9.80
2019-04-14T15:37:48.056Z,10.27
2019-04-14T15:40:14.945Z,7.60
2019-04-14T15:42:41.636Z,8.30
2019-04-14T15:45:09.969Z,8.60
2019-04-14T15:47:36.838Z,8.70
2019-04-14T15:50:05.180Z,9.20
2019-04-14T15:52:32.067Z,7.90
2019-04-14T15:54:58.711Z,7.70
2019-04-14T15:57:33.019Z,7.00
2019-04-14T16:00:04.177Z,7.43
2019-04-14T16:02:35.777Z,7.90
2019-04-14T16:05:06.236Z,9.20
2019-04-14T16:07:47.196Z,6.43
2019-04-14T16:10:27.934Z,13.77
2019-04-14T16:13:02.304Z,9.00
2019-04-14T16:15:39.808Z,5.90
2019-04-14T16:18:25.088Z,4.50
2019-04-14T16:20:52.013Z,5.60
2019-04-14T16:23:19.110Z,5.30
2019-04-14T16:25:53.184Z,6.30
2019-04-14T16:28:24.614Z,5.07
2019-04-14T16:30:55.998Z,4.50
2019-04-14T16:33:25.369Z,4.80
2019-04-14T16:35:52.708Z,4.77
2019-04-14T16:38:30.281Z,4.13
2019-04-14T16:40:57.157Z,4.37
2019-04-14T16:43:26.113Z,4.80
2019-04-14T16:45:52.412Z,6.03
2019-04-14T16:48:19.204Z,12.90
2019-04-14T16:50:45.832Z,8.23
2019-04-14T16:53:14.439Z,7.40
2019-04-14T16:55:45.803Z,8.07
2019-04-14T16:58:17.212Z,7.47
2019-04-14T17:00:48.735Z,10.50
2019-04-14T17:03:15.531Z,6.40
2019-04-14T17:05:42.173Z,4.40
2019-04-14T17:08:08.988Z,3.80
2019-04-14T17:10:35.749Z,4.60
2019-04-14T17:13:02.389Z,4.30
2019-04-14T17:15:42.888Z,4.57
2019-04-14T17:18:17.501Z,4.10
2019-04-14T17:20:58.652Z,4.30
2019-04-14T17:23:29.959Z,5.27
2019-04-14T17:26:10.619Z,12.17
2019-04-14T17:28:39.196Z,9.30
2019-04-14T17:31:07.781Z,5.60
2019-04-14T17:33:39.371Z,5.00
2019-04-14T17:36:07.923Z,4.67
2019-04-14T17:38:39.338Z,4.10
2019-04-14T17:41:26.191Z,4.10
2019-04-14T17:44:06.560Z,4.47
2019-04-14T17:46:40.929Z,4.23
2019-04-14T17:49:26.211Z,4.53
2019-04-14T17:52:11.377Z,4.10
2019-04-14T17:54:39.956Z,4.03
2019-04-14T17:57:24.888Z,4.27
2019-04-14T17:59:53.476Z,4.37
2019-04-14T18:02:22.012Z,5.23
2019-04-14T18:05:02.576Z,4.23
2019-04-14T18:07:34.754Z,4.30
2019-04-14T18:10:04.719Z,5.40
2019-04-14T18:12:45.370Z,5.03
2019-04-14T18:15:20.525Z,4.77
2019-04-14T18:18:07.256Z,4.83
2019-04-14T18:20:38.368Z,5.23
2019-04-14T18:23:05.001Z,5.30
2019-04-14T18:25:31.776Z,5.53
2019-04-14T18:28:02.949Z,5.53
2019-04-14T18:30:31.485Z,5.20
2019-04-14T18:33:00.061Z,5.80
2019-04-14T18:35:28.651Z,5.70
2019-04-14T18:37:57.224Z,5.33
2019-04-14T18:40:25.784Z,5.80
2019-04-14T18:42:56.945Z,5.43
2019-04-14T18:45:34.492Z,5.50
2019-04-14T18:48:12.188Z,6.57
2019-04-14T18:50:51.833Z,6.47
2019-04-14T18:53:19.967Z,8.27
2019-04-14T18:56:05.116Z,6.50
2019-04-14T18:58:36.499Z,8.70
2019-04-14T19:01:05.245Z,10.10
2019-04-14T19:03:31.943Z,10.73
2019-04-14T19:05:59.151Z,7.50
2019-04-14T19:08:25.812Z,5.90
2019-04-14T19:11:06.456Z,6.63
2019-04-14T19:13:34.848Z,7.10
2019-04-14T19:16:03.436Z,7.40
2019-04-14T19:18:32.021Z,7.23
2019-04-14T19:21:06.423Z,6.90
2019-04-14T19:23:33.566Z,6.97
2019-04-14T19:26:00.228Z,6.30
2019-04-14T19:28:26.892Z,7.30
2019-04-14T19:30:53.544Z,7.20
2019-04-14T19:33:20.201Z,7.00
2019-04-14T19:35:46.898Z,7.30
2019-04-14T19:38:14.417Z,7.00
2019-04-14T19:40:41.113Z,7.43
2019-04-14T19:43:08.073Z,7.43
2019-04-14T19:45:34.692Z,9.80
2019-04-14T19:48:01.686Z,8.50
2019-04-14T19:50:28.649Z,8.77
2019-04-14T19:52:55.317Z,9.83
2019-04-14T19:55:22.209Z,8.50
2019-04-14T19:57:48.865Z,10.13
2019-04-14T20:00:16.516Z,8.43
2019-04-14T20:02:43.733Z,9.00
2019-04-14T20:05:10.847Z,9.53
2019-04-14T20:07:37.590Z,9.70
2019-04-14T20:10:05.649Z,9.70
2019-04-14T20:12:32.377Z,10.83
2019-04-14T20:14:59.200Z,9.30
2019-04-14T20:17:33.294Z,9.63
2019-04-14T20:20:04.564Z,9.57
2019-04-14T20:22:33.092Z,10.30
2019-04-14T20:25:01.625Z,11.47
2019-04-14T20:27:35.946Z,11.90
2019-04-14T20:30:22.872Z,10.50
2019-04-14T20:32:50.244Z,9.70
2019-04-14T20:35:17.020Z,9.97
2019-04-14T20:37:43.765Z,10.70
2019-04-14T20:40:10.836Z,10.87
2019-04-14T20:42:37.507Z,10.47
2019-04-14T20:45:05.985Z,10.27
2019-04-14T20:47:32.620Z,9.80
2019-04-14T20:49:59.301Z,9.83
2019-04-14T20:52:25.925Z,9.10
2019-04-14T20:54:52.684Z,10.00
2019-04-14T20:57:19.321Z,10.07
2019-04-14T20:59:46.000Z,9.63
2019-04-14T21:02:20.157Z,9.60
2019-04-14T21:04:51.832Z,9.83
2019-04-14T21:07:26.204Z,8.73
2019-04-14T21:09:54.732Z,10.03
2019-04-14T21:12:23.325Z,9.80
2019-04-14T21:14:51.947Z,10.63
2019-04-14T21:17:26.055Z,11.57
2019-04-14T21:19:57.470Z,11.20
2019-04-14T21:22:42.604Z,11.67
2019-04-14T21:25:27.802Z,11.13
2019-04-14T21:27:59.341Z,10.47
2019-04-14T21:30:33.655Z,10.57
2019-04-14T21:33:04.942Z,11.63
2019-04-14T21:35:50.258Z,10.97
2019-04-14T21:38:18.795Z,10.77
2019-04-14T21:40:55.932Z,10.50
2019-04-14T21:43:22.588Z,10.93
2019-04-14T21:45:49.245Z,11.00
2019-04-14T21:48:15.904Z,11.53
2019-04-14T21:50:43.824Z,10.63
2019-04-14T21:53:10.383Z,10.20
2019-04-14T21:55:37.047Z,11.13
2019-04-14T21:58:22.479Z,10.80
2019-04-14T22:01:11.156Z,11.10
2019-04-14T22:03:48.707Z,10.60
2019-04-14T22:06:23.033Z,10.90
2019-04-14T22:08:51.592Z,10.97
2019-04-14T22:11:25.700Z,10.33
2019-04-14T22:13:52.362Z,11.10
2019-04-14T22:16:19.053Z,11.83
2019-04-14T22:18:45.829Z,13.07
2019-04-14T22:21:12.459Z,11.70
2019-04-14T22:23:39.136Z,12.40
2019-04-14T22:26:05.868Z,11.33
2019-04-14T22:28:32.677Z,12.77
2019-04-14T22:30:59.391Z,12.77
2019-04-14T22:33:26.033Z,12.90
2019-04-14T22:35:52.653Z,12.30
2019-04-14T22:38:19.364Z,11.73
2019-04-14T22:40:46.132Z,12.60
2019-04-14T22:43:12.753Z,13.20
2019-04-14T22:45:39.409Z,13.00
2019-04-14T22:48:06.258Z,11.87
2019-04-14T22:50:32.945Z,12.80
2019-04-14T22:52:59.595Z,12.17
2019-04-14T22:55:26.332Z,12.13
2019-04-14T22:57:52.945Z,13.07
2019-04-14T23:00:41.653Z,13.60
2019-04-14T23:03:19.295Z,13.70
2019-04-14T23:05:47.851Z,12.50
2019-04-14T23:08:28.296Z,12.70
2019-04-14T23:10:56.876Z,13.87
2019-04-14T23:13:25.437Z,12.33
2019-04-14T23:15:54.044Z,13.87
2019-04-14T23:18:34.650Z,12.83
2019-04-14T23:21:03.309Z,13.00
2019-04-14T23:23:31.793Z,14.00
2019-04-14T23:25:58.456Z,14.73
2019-04-14T23:28:25.088Z,14.00
2019-04-14T23:30:51.721Z,13.67
2019-04-14T23:33:18.401Z,13.90
2019-04-14T23:35:45.037Z,13.60
2019-04-14T23:38:11.840Z,13.50
2019-04-14T23:40:38.481Z,12.27
2019-04-14T23:43:05.279Z,13.23
2019-04-14T23:45:32.037Z,13.33
2019-04-14T23:47:58.721Z,14.27
2019-04-14T23:50:25.369Z,13.27
2019-04-14T23:52:52.040Z,14.20
2019-04-14T23:55:18.793Z,14.50
2019-04-14T23:57:45.464Z,13.63
